createdAt,value
2022-07-29T00:00:59.748Z,51.85
2022-07-29T00:03:26.547Z,52.16
2022-07-29T00:05:54.906Z,51.91
2022-07-29T00:08:21.610Z,52.26
2022-07-29T00:10:48.857Z,52.61
2022-07-29T00:13:15.785Z,52.60
2022-07-29T00:15:42.900Z,53.38
2022-07-29T00:18:09.562Z,52.86
2022-07-29T00:20:36.265Z,53.09
2022-07-29T00:23:02.946Z,53.28
2022-07-29T00:25:29.559Z,53.08
2022-07-29T00:27:57.848Z,52.11
2022-07-29T00:30:24.589Z,52.09
2022-07-29T00:32:51.275Z,51.62
2022-07-29T00:35:36.531Z,51.44
2022-07-29T00:38:03.110Z,51.51
2022-07-29T00:40:29.799Z,52.04
2022-07-29T00:42:56.682Z,51.71
2022-07-29T00:45:23.543Z,51.76
2022-07-29T00:47:50.446Z,50.96
2022-07-29T00:50:17.980Z,50.43
2022-07-29T00:52:44.885Z,50.12
2022-07-29T00:55:13.991Z,50.09
2022-07-29T00:57:42.385Z,50.40
2022-07-29T01:00:13.116Z,50.76
2022-07-29T01:02:39.650Z,50.90
2022-07-29T01:05:07.425Z,50.86
2022-07-29T01:07:37.236Z,51.15
2022-07-29T01:10:05.637Z,51.75
2022-07-29T01:12:34.462Z,51.57
2022-07-29T01:15:02.601Z,51.94
2022-07-29T01:17:53.193Z,52.29
2022-07-29T01:21:07.020Z,52.78
2022-07-29T01:23:52.475Z,52.50
2022-07-29T01:26:32.414Z,52.26
2022-07-29T01:29:08.365Z,51.85
2022-07-29T01:32:02.592Z,51.55
2022-07-29T01:35:11.505Z,51.66
2022-07-29T01:38:10.487Z,50.91
2022-07-29T01:40:46.934Z,51.49
2022-07-29T01:43:21.277Z,52.47
2022-07-29T01:45:51.814Z,52.57
2022-07-29T01:48:25.825Z,52.08
2022-07-29T01:51:08.715Z,51.93
2022-07-29T01:53:56.071Z,52.97
2022-07-29T01:56:24.135Z,52.01
2022-07-29T01:58:53.208Z,52.97
2022-07-29T02:01:21.240Z,53.07
2022-07-29T02:03:49.964Z,53.70
2022-07-29T02:06:20.184Z,53.33
2022-07-29T02:08:48.811Z,53.58
2022-07-29T02:11:15.759Z,53.21
2022-07-29T02:13:44.110Z,52.44
2022-07-29T02:16:11.629Z,52.66
2022-07-29T02:18:41.855Z,52.68
2022-07-29T02:21:14.746Z,51.48
2022-07-29T02:23:50.981Z,50.98
2022-07-29T02:26:20.472Z,52.29
2022-07-29T02:28:48.439Z,51.32
2022-07-29T02:31:17.608Z,51.36
2022-07-29T02:33:46.777Z,51.03
2022-07-29T02:36:14.364Z,51.74
2022-07-29T02:38:52.680Z,51.39
2022-07-29T02:41:30.625Z,50.88
2022-07-29T02:44:04.639Z,50.92
2022-07-29T02:46:35.615Z,52.37
2022-07-29T02:49:17.313Z,51.45
2022-07-29T02:51:53.968Z,51.33
2022-07-29T02:54:34.794Z,51.03
2022-07-29T02:57:07.336Z,51.27
2022-07-29T02:59:37.609Z,50.95
2022-07-29T03:02:06.396Z,51.21
2022-07-29T03:04:35.367Z,51.08
2022-07-29T03:07:03.076Z,51.22
2022-07-29T03:09:31.187Z,51.55
2022-07-29T03:11:58.187Z,51.40
2022-07-29T03:14:25.489Z,51.44
2022-07-29T03:16:53.050Z,50.93
2022-07-29T03:19:21.352Z,51.14
2022-07-29T03:21:48.315Z,52.30
2022-07-29T03:24:29.244Z,52.64
2022-07-29T03:26:57.543Z,52.74
2022-07-29T03:29:24.632Z,52.63
2022-07-29T03:31:51.403Z,52.46
2022-07-29T03:34:18.721Z,52.99
2022-07-29T03:36:45.732Z,53.01
2022-07-29T03:39:15.500Z,53.30
2022-07-29T03:41:43.573Z,52.04
2022-07-29T03:44:10.792Z,51.94
2022-07-29T03:46:40.077Z,51.56
2022-07-29T03:49:09.530Z,51.64
2022-07-29T03:51:36.407Z,51.39
2022-07-29T03:54:09.535Z,51.65
2022-07-29T03:56:40.852Z,51.86
2022-07-29T03:59:08.404Z,52.10
2022-07-29T04:01:36.128Z,52.72
2022-07-29T04:04:04.851Z,52.42
2022-07-29T04:06:39.457Z,53.27
2022-07-29T04:09:06.155Z,53.15
2022-07-29T04:12:03.209Z,52.59
2022-07-29T04:14:25.841Z,52.28
2022-07-29T04:16:52.589Z,52.24
2022-07-29T04:19:19.224Z,50.99
2022-07-29T04:21:46.272Z,50.88
2022-07-29T04:24:13.267Z,50.61
2022-07-29T04:26:40.006Z,50.90
2022-07-29T04:29:06.707Z,51.07
2022-07-29T04:31:33.498Z,51.40
2022-07-29T04:34:02.817Z,51.30
2022-07-29T04:36:30.866Z,51.77
2022-07-29T04:38:57.691Z,52.06
2022-07-29T04:41:32.747Z,52.50
2022-07-29T04:44:02.025Z,52.58
2022-07-29T04:46:29.194Z,52.72
2022-07-29T04:48:56.194Z,53.02
2022-07-29T04:51:23.113Z,53.00
2022-07-29T04:53:51.524Z,52.25
2022-07-29T04:56:18.136Z,52.29
2022-07-29T04:58:44.764Z,52.82
2022-07-29T05:01:12.039Z,52.65
2022-07-29T05:03:38.911Z,52.84
2022-07-29T05:06:05.605Z,52.33
2022-07-29T05:08:33.600Z,52.18
2022-07-29T05:11:11.321Z,52.13
2022-07-29T05:13:46.321Z,51.71
2022-07-29T05:16:14.630Z,51.34
2022-07-29T05:18:41.876Z,50.62
2022-07-29T05:21:08.571Z,51.55
2022-07-29T05:23:35.204Z,50.71
2022-07-29T05:26:01.895Z,49.51
2022-07-29T05:28:28.531Z,49.44
2022-07-29T05:30:55.246Z,48.85
2022-07-29T05:33:35.886Z,50.08
2022-07-29T05:36:08.235Z,49.61
2022-07-29T05:38:38.691Z,50.70
2022-07-29T05:41:06.383Z,50.18
2022-07-29T05:43:33.080Z,50.69
2022-07-29T05:46:00.102Z,50.34
2022-07-29T05:48:26.985Z,49.35
2022-07-29T05:50:54.120Z,50.09
2022-07-29T05:53:21.166Z,50.38
2022-07-29T05:55:48.814Z,48.98
2022-07-29T05:58:16.052Z,49.62
2022-07-29T06:00:42.998Z,49.23
2022-07-29T06:03:09.657Z,49.13
2022-07-29T06:05:36.300Z,50.18
2022-07-29T06:08:06.739Z,49.49
2022-07-29T06:10:34.672Z,48.97
2022-07-29T06:13:01.574Z,49.18
2022-07-29T06:15:28.226Z,48.22
2022-07-29T06:17:59.973Z,48.64
2022-07-29T06:20:32.113Z,48.93
2022-07-29T06:22:59.683Z,48.54
2022-07-29T06:25:26.859Z,49.23
2022-07-29T06:27:53.589Z,49.32
2022-07-29T06:30:20.535Z,48.89
2022-07-29T06:32:47.734Z,48.72
2022-07-29T06:38:01.171Z,49.26
2022-07-29T06:40:46.411Z,48.78
2022-07-29T06:43:13.045Z,48.84
2022-07-29T06:45:42.438Z,49.32
2022-07-29T06:48:10.543Z,48.81
2022-07-29T06:50:37.408Z,47.91
2022-07-29T06:53:04.517Z,47.94
2022-07-29T06:55:31.225Z,47.99
2022-07-29T06:57:57.921Z,49.07
2022-07-29T07:00:24.837Z,47.88
2022-07-29T07:02:51.667Z,48.90
2022-07-29T07:05:18.411Z,47.76
2022-07-29T07:07:45.223Z,47.86
2022-07-29T07:10:11.999Z,48.51
2022-07-29T07:12:38.675Z,47.79
2022-07-29T07:15:06.079Z,46.91
2022-07-29T07:17:32.744Z,47.72
2022-07-29T07:19:59.524Z,47.63
2022-07-29T07:22:26.245Z,47.29
2022-07-29T07:24:52.840Z,47.93
2022-07-29T07:27:19.501Z,47.58
2022-07-29T07:29:46.157Z,47.70
2022-07-29T07:32:14.441Z,47.49
2022-07-29T07:34:41.216Z,47.05
2022-07-29T07:37:09.439Z,46.79
2022-07-29T07:39:36.124Z,47.67
2022-07-29T07:42:02.770Z,47.46
2022-07-29T07:44:29.368Z,46.77
2022-07-29T07:46:56.024Z,47.22
2022-07-29T07:49:22.927Z,46.97
2022-07-29T07:51:50.806Z,47.65
2022-07-29T07:54:20.494Z,46.94
2022-07-29T07:56:50.005Z,46.87
2022-07-29T07:59:20.075Z,46.72
2022-07-29T08:01:48.402Z,46.52
2022-07-29T08:04:27.292Z,46.89
2022-07-29T08:06:55.624Z,45.88
2022-07-29T08:09:29.166Z,47.38
2022-07-29T08:11:56.974Z,46.80
2022-07-29T08:14:23.908Z,47.27
2022-07-29T08:16:50.675Z,47.31
2022-07-29T08:19:17.586Z,47.05
2022-07-29T08:21:44.253Z,46.87
2022-07-29T08:24:29.458Z,47.17
2022-07-29T08:26:56.122Z,46.25
2022-07-29T08:29:22.748Z,47.01
2022-07-29T08:31:49.511Z,47.21
2022-07-29T08:34:16.169Z,46.90
2022-07-29T08:36:42.930Z,46.59
2022-07-29T08:39:09.606Z,47.31
2022-07-29T08:41:36.532Z,47.01
2022-07-29T08:44:03.383Z,45.73
2022-07-29T08:46:30.036Z,45.81
2022-07-29T08:48:56.823Z,46.62
2022-07-29T08:51:26.653Z,45.95
2022-07-29T08:53:55.433Z,46.39
2022-07-29T08:56:24.323Z,46.04
2022-07-29T08:58:52.298Z,46.21
2022-07-29T09:01:35.787Z,46.55
2022-07-29T09:04:07.028Z,46.20
2022-07-29T09:06:38.359Z,46.60
2022-07-29T09:09:05.429Z,45.50
2022-07-29T09:11:38.686Z,46.35
2022-07-29T09:14:06.750Z,45.67
2022-07-29T09:16:53.831Z,46.09
2022-07-29T09:19:25.002Z,44.77
2022-07-29T09:21:58.586Z,45.22
2022-07-29T09:24:40.758Z,44.55
2022-07-29T09:27:19.898Z,44.97
2022-07-29T09:29:46.636Z,44.27
2022-07-29T09:32:13.458Z,43.30
2022-07-29T09:34:40.182Z,43.43
2022-07-29T09:37:06.905Z,43.85
2022-07-29T09:39:39.022Z,43.18
2022-07-29T09:42:07.162Z,43.95
2022-07-29T09:44:43.944Z,42.97
2022-07-29T09:47:10.911Z,42.89
2022-07-29T09:49:51.083Z,43.05
2022-07-29T09:52:17.815Z,42.21
2022-07-29T09:54:45.826Z,41.85
2022-07-29T09:57:30.867Z,42.74
2022-07-29T10:00:08.086Z,43.39
2022-07-29T10:02:38.050Z,44.22
2022-07-29T10:05:07.774Z,44.45
2022-07-29T10:07:51.748Z,43.65
2022-07-29T10:10:22.444Z,41.48
2022-07-29T10:13:01.761Z,41.33
2022-07-29T10:15:40.092Z,42.08
2022-07-29T10:18:08.168Z,41.20
2022-07-29T10:20:35.815Z,42.10
2022-07-29T10:23:02.630Z,41.59
2022-07-29T10:25:29.311Z,41.18
2022-07-29T10:27:56.344Z,38.90
2022-07-29T10:30:24.441Z,37.96
2022-07-29T10:33:00.197Z,37.01
2022-07-29T10:35:45.481Z,39.20
2022-07-29T10:38:50.880Z,39.93
2022-07-29T10:41:56.785Z,40.51
2022-07-29T10:44:26.004Z,39.09
2022-07-29T10:46:53.426Z,37.55
2022-07-29T10:49:30.525Z,36.46
2022-07-29T10:52:00.945Z,38.36
2022-07-29T10:54:36.620Z,38.14
2022-07-29T10:57:13.668Z,37.34
2022-07-29T10:59:43.396Z,38.45
2022-07-29T11:02:41.300Z,38.85
2022-07-29T11:05:19.696Z,37.81
2022-07-29T11:08:20.116Z,37.45
2022-07-29T11:11:08.055Z,36.35
2022-07-29T11:13:44.250Z,35.15
2022-07-29T11:16:11.354Z,37.04
2022-07-29T11:19:13.247Z,36.32
2022-07-29T11:21:54.070Z,35.54
2022-07-29T11:24:32.010Z,36.80
2022-07-29T11:27:19.819Z,36.72
2022-07-29T11:30:03.300Z,37.81
2022-07-29T11:32:38.990Z,35.67
2022-07-29T11:35:36.803Z,36.98
2022-07-29T11:38:23.301Z,37.31
2022-07-29T11:41:18.084Z,37.32
2022-07-29T11:43:50.840Z,37.29
2022-07-29T11:46:39.529Z,37.78
2022-07-29T11:49:09.194Z,35.87
2022-07-29T11:51:38.424Z,33.99
2022-07-29T11:54:27.486Z,33.88
2022-07-29T11:56:54.981Z,35.35
2022-07-29T11:59:22.390Z,36.14
2022-07-29T12:02:12.034Z,36.99
2022-07-29T12:04:51.479Z,33.54
2022-07-29T12:07:20.284Z,34.23
2022-07-29T12:09:56.987Z,35.08
2022-07-29T12:12:24.615Z,35.56
2022-07-29T12:14:51.877Z,35.99
2022-07-29T12:17:35.676Z,35.29
2022-07-29T12:20:05.046Z,34.99
2022-07-29T12:22:38.267Z,33.13
2022-07-29T12:25:32.390Z,34.91
2022-07-29T12:28:03.239Z,34.68
2022-07-29T12:30:41.592Z,34.60
2022-07-29T12:33:13.790Z,35.03
2022-07-29T12:35:41.079Z,34.74
2022-07-29T12:38:08.214Z,34.82
2022-07-29T12:40:34.859Z,35.46
2022-07-29T12:43:21.564Z,35.63
2022-07-29T12:45:54.394Z,35.89
2022-07-29T12:48:41.603Z,36.26
2022-07-29T12:51:10.090Z,37.18
2022-07-29T12:53:37.836Z,35.82
2022-07-29T12:56:15.535Z,35.22
2022-07-29T12:58:52.734Z,36.45
2022-07-29T13:01:21.138Z,37.07
2022-07-29T13:03:59.649Z,36.67
2022-07-29T13:06:36.602Z,37.29
2022-07-29T13:09:14.932Z,37.50
2022-07-29T13:11:48.333Z,38.02
2022-07-29T13:14:32.773Z,37.64
2022-07-29T13:17:14.010Z,38.55
2022-07-29T13:19:48.896Z,38.80
2022-07-29T13:22:17.750Z,38.91
2022-07-29T13:24:53.939Z,38.06
2022-07-29T13:27:25.708Z,38.44
2022-07-29T13:29:53.485Z,38.44
2022-07-29T13:32:28.188Z,38.28
2022-07-29T13:35:01.679Z,39.07
2022-07-29T13:37:35.090Z,38.93
2022-07-29T13:40:04.250Z,38.39
2022-07-29T13:42:31.504Z,37.87
2022-07-29T13:44:58.127Z,38.32
2022-07-29T13:47:32.772Z,38.72
2022-07-29T13:50:01.343Z,38.94
2022-07-29T13:52:29.017Z,39.06
2022-07-29T13:54:55.777Z,39.00
2022-07-29T13:57:22.419Z,39.36
2022-07-29T13:59:53.711Z,37.31
2022-07-29T14:02:21.493Z,37.84
2022-07-29T14:04:53.609Z,38.37
2022-07-29T14:07:20.489Z,37.20
2022-07-29T14:09:47.282Z,37.62
2022-07-29T14:12:14.011Z,36.93
2022-07-29T14:14:41.057Z,35.11
2022-07-29T14:17:08.058Z,35.39
2022-07-29T14:19:39.208Z,37.24
2022-07-29T14:22:07.530Z,36.94
2022-07-29T14:24:37.354Z,37.04
2022-07-29T14:27:05.613Z,39.03
2022-07-29T14:29:37.354Z,37.99
2022-07-29T14:32:09.097Z,37.33
2022-07-29T14:34:37.469Z,37.56
2022-07-29T14:37:06.777Z,37.82
2022-07-29T14:39:36.932Z,37.52
2022-07-29T14:42:06.385Z,37.56
2022-07-29T14:44:33.378Z,38.04
2022-07-29T14:47:01.363Z,38.35
2022-07-29T14:49:34.582Z,39.88
2022-07-29T14:52:01.476Z,40.41
2022-07-29T14:54:28.308Z,38.98
2022-07-29T14:56:58.026Z,39.63
2022-07-29T14:59:25.196Z,39.92
2022-07-29T15:01:52.084Z,39.83
2022-07-29T15:04:18.804Z,39.19
2022-07-29T15:06:45.507Z,39.34
2022-07-29T15:09:12.152Z,39.05
2022-07-29T15:11:39.994Z,38.42
2022-07-29T15:14:07.313Z,38.11
2022-07-29T15:16:37.074Z,38.58
2022-07-29T15:19:05.331Z,39.03
2022-07-29T15:21:32.343Z,39.87
2022-07-29T15:23:59.468Z,40.79
2022-07-29T15:26:26.663Z,45.06
2022-07-29T15:28:53.444Z,42.36
2022-07-29T15:31:20.268Z,42.63
2022-07-29T15:33:46.993Z,43.25
2022-07-29T15:36:30.323Z,44.54
2022-07-29T15:39:01.485Z,43.99
2022-07-29T15:41:28.365Z,44.33
2022-07-29T15:43:54.981Z,44.83
2022-07-29T15:46:40.228Z,44.20
2022-07-29T15:49:07.664Z,44.45
2022-07-29T15:51:34.675Z,45.14
2022-07-29T15:54:05.407Z,44.25
2022-07-29T15:56:32.654Z,43.89
2022-07-29T15:59:00.038Z,44.18
2022-07-29T16:01:28.444Z,44.13
2022-07-29T16:03:55.360Z,43.32
2022-07-29T16:06:22.684Z,43.37
2022-07-29T16:08:49.480Z,43.07
2022-07-29T16:11:17.897Z,43.49
2022-07-29T16:13:44.556Z,43.96
2022-07-29T16:16:13.002Z,43.30
2022-07-29T16:18:39.771Z,41.67
2022-07-29T16:21:06.475Z,43.34
2022-07-29T16:23:33.216Z,44.75
2022-07-29T16:26:01.075Z,44.41
2022-07-29T16:28:29.254Z,44.83
2022-07-29T16:30:55.970Z,45.37
2022-07-29T16:33:23.673Z,46.17
2022-07-29T16:35:51.540Z,47.28
2022-07-29T16:38:18.775Z,46.69
2022-07-29T16:40:46.613Z,46.57
2022-07-29T16:43:13.640Z,46.68
2022-07-29T16:45:45.297Z,47.29
2022-07-29T16:48:18.069Z,48.16
2022-07-29T16:50:45.529Z,48.24
2022-07-29T16:53:12.158Z,48.85
2022-07-29T16:55:39.016Z,48.09
2022-07-29T16:58:09.816Z,47.95
2022-07-29T17:03:11.528Z,48.78
2022-07-29T17:05:52.526Z,48.93
2022-07-29T17:08:21.372Z,49.21
2022-07-29T17:10:48.285Z,48.15
2022-07-29T17:13:15.240Z,48.88
2022-07-29T17:15:44.688Z,48.56
2022-07-29T17:18:12.855Z,48.59
2022-07-29T17:20:41.316Z,48.60
2022-07-29T17:23:08.091Z,48.38
2022-07-29T17:25:34.936Z,47.51
2022-07-29T17:28:01.716Z,47.93
2022-07-29T17:30:29.668Z,47.82
2022-07-29T17:32:56.816Z,48.51
2022-07-29T17:35:42.615Z,48.29
2022-07-29T17:38:09.366Z,47.61
2022-07-29T17:40:36.129Z,47.33
2022-07-29T17:43:04.805Z,47.79
2022-07-29T17:45:49.817Z,47.71
2022-07-29T17:48:17.784Z,47.48
2022-07-29T17:50:44.713Z,47.78
2022-07-29T17:53:16.211Z,48.42
2022-07-29T17:55:48.648Z,48.07
2022-07-29T17:58:16.423Z,48.11
2022-07-29T18:00:43.796Z,48.46
2022-07-29T18:03:10.990Z,48.30
2022-07-29T18:05:37.780Z,48.08
2022-07-29T18:08:05.218Z,48.23
2022-07-29T18:10:32.236Z,47.42
2022-07-29T18:12:58.952Z,47.71
2022-07-29T18:15:25.822Z,47.53
2022-07-29T18:17:57.581Z,47.53
2022-07-29T18:20:27.946Z,46.60
2022-07-29T18:22:55.647Z,47.23
2022-07-29T18:25:22.583Z,47.39
2022-07-29T18:27:49.938Z,47.60
2022-07-29T18:30:16.854Z,47.78
2022-07-29T18:32:59.290Z,47.75
2022-07-29T18:35:30.824Z,48.08
2022-07-29T18:38:02.014Z,48.12
2022-07-29T18:40:29.699Z,48.50
2022-07-29T18:42:57.201Z,47.98
2022-07-29T18:45:28.615Z,48.22
2022-07-29T18:47:56.025Z,48.62
2022-07-29T18:50:28.840Z,48.94
2022-07-29T18:52:58.789Z,48.72
2022-07-29T18:55:27.206Z,48.49
2022-07-29T18:57:56.068Z,48.62
2022-07-29T19:00:24.789Z,48.25
2022-07-29T19:02:52.627Z,48.21
2022-07-29T19:05:19.683Z,48.82
2022-07-29T19:07:47.501Z,48.59
2022-07-29T19:10:14.581Z,48.97
2022-07-29T19:12:41.604Z,48.79
2022-07-29T19:15:10.949Z,48.22
2022-07-29T19:17:38.708Z,48.09
2022-07-29T19:20:07.284Z,47.93
2022-07-29T19:22:34.505Z,47.89
2022-07-29T19:25:01.451Z,48.41
2022-07-29T19:27:28.454Z,48.16
2022-07-29T19:29:58.937Z,49.08
2022-07-29T19:32:26.342Z,49.35
2022-07-29T19:35:12.127Z,49.26
2022-07-29T19:37:39.072Z,49.48
2022-07-29T19:40:07.073Z,49.45
2022-07-29T19:42:34.190Z,50.92
2022-07-29T19:45:02.104Z,55.19
2022-07-29T19:47:28.773Z,52.22
2022-07-29T19:49:56.156Z,54.64
2022-07-29T19:52:22.790Z,56.54
2022-07-29T19:54:49.668Z,57.82
2022-07-29T19:57:16.633Z,57.00
2022-07-29T19:59:44.989Z,59.31
2022-07-29T20:02:12.547Z,59.73
2022-07-29T20:04:40.251Z,58.20
2022-07-29T20:07:07.642Z,58.67
2022-07-29T20:09:34.541Z,57.46
2022-07-29T20:12:01.154Z,55.69
2022-07-29T20:14:27.918Z,55.49
2022-07-29T20:16:54.841Z,55.00
2022-07-29T20:19:21.809Z,54.72
2022-07-29T20:21:48.455Z,55.21
2022-07-29T20:24:15.230Z,54.96
2022-07-29T20:26:41.890Z,55.14
2022-07-29T20:29:09.193Z,55.19
2022-07-29T20:31:36.175Z,54.91
2022-07-29T20:34:03.208Z,54.20
2022-07-29T20:36:30.028Z,54.19
2022-07-29T20:38:57.022Z,54.59
2022-07-29T20:41:23.739Z,54.88
2022-07-29T20:43:50.408Z,54.45
2022-07-29T20:46:18.187Z,55.13
2022-07-29T20:48:45.765Z,55.06
2022-07-29T20:51:13.218Z,55.37
2022-07-29T20:53:41.132Z,54.91
2022-07-29T20:56:08.041Z,55.59
2022-07-29T20:58:36.401Z,54.91
2022-07-29T21:01:05.030Z,55.05
2022-07-29T21:03:33.000Z,55.74
2022-07-29T21:06:00.382Z,55.50
2022-07-29T21:08:27.161Z,57.34
2022-07-29T21:10:54.466Z,57.32
2022-07-29T21:13:23.174Z,58.10
2022-07-29T21:15:51.674Z,56.90
2022-07-29T21:18:32.614Z,58.19
2022-07-29T21:21:04.591Z,56.99
2022-07-29T21:23:31.943Z,57.35
2022-07-29T21:25:58.795Z,58.11
2022-07-29T21:28:40.218Z,56.36
2022-07-29T21:31:12.615Z,58.38
2022-07-29T21:33:42.600Z,58.43
2022-07-29T21:36:42.706Z,57.63
2022-07-29T21:38:58.357Z,57.46
2022-07-29T21:41:25.628Z,57.49
2022-07-29T21:43:54.678Z,57.47
2022-07-29T21:46:26.187Z,57.29
2022-07-29T21:48:53.016Z,57.89
2022-07-29T21:51:19.714Z,57.70
2022-07-29T21:53:46.327Z,57.85
2022-07-29T21:56:14.924Z,57.44
2022-07-29T21:58:43.296Z,57.18
2022-07-29T22:01:10.072Z,57.60
2022-07-29T22:03:36.720Z,57.84
2022-07-29T22:06:03.477Z,57.23
2022-07-29T22:08:30.231Z,57.71
2022-07-29T22:10:56.862Z,57.03
2022-07-29T22:13:23.506Z,57.35
2022-07-29T22:15:50.501Z,57.82
2022-07-29T22:18:20.463Z,57.96
2022-07-29T22:20:47.520Z,58.00
2022-07-29T22:23:14.180Z,57.12
2022-07-29T22:25:40.935Z,57.21
2022-07-29T22:28:07.621Z,56.75
2022-07-29T22:30:37.413Z,57.04
2022-07-29T22:33:04.218Z,57.28
2022-07-29T22:35:30.944Z,58.04
2022-07-29T22:38:01.175Z,57.88
2022-07-29T22:40:30.494Z,57.66
2022-07-29T22:42:57.530Z,58.38
2022-07-29T22:45:24.632Z,57.72
2022-07-29T22:47:55.947Z,57.55
2022-07-29T22:50:26.445Z,57.75
2022-07-29T22:52:53.319Z,57.53
2022-07-29T22:55:20.095Z,57.40
2022-07-29T22:57:46.822Z,58.17
2022-07-29T23:00:14.293Z,57.89
2022-07-29T23:02:41.572Z,57.79
2022-07-29T23:05:09.265Z,57.84
2022-07-29T23:07:36.203Z,58.20
2022-07-29T23:10:04.696Z,58.37
2022-07-29T23:12:32.600Z,58.33
2022-07-29T23:14:59.307Z,58.30
2022-07-29T23:17:27.541Z,58.16
2022-07-29T23:19:54.218Z,58.50
2022-07-29T23:22:20.817Z,58.44
2022-07-29T23:24:48.009Z,58.54
2022-07-29T23:27:14.702Z,59.06
2022-07-29T23:29:42.622Z,58.47
2022-07-29T23:32:09.323Z,58.71
2022-07-29T23:34:36.061Z,58.74
2022-07-29T23:37:03.145Z,59.57
2022-07-29T23:39:30.201Z,58.73
2022-07-29T23:41:56.990Z,58.73
2022-07-29T23:44:24.044Z,59.23
2022-07-29T23:46:50.874Z,59.31
2022-07-29T23:49:17.918Z,58.92
2022-07-29T23:51:44.715Z,58.26
2022-07-29T23:54:11.522Z,58.89
2022-07-29T23:56:38.296Z,58.81
2022-07-29T23:59:05.900Z,59.56
